Accueil
METAR-TAF:

METAR-TAF

Aéroports :

Schwäbisch Hall, Allemagne

latitude: 49-07-06N, longitude: 9-47-02E, altitude: 398 m

Observation

Le bulletin a été fait il y a 5 heures et 43 minutes, à 18:50 UTC
Température -2°C
Humidité 63%
Pression 1016 hPa
Visibilité 10 km ou plus
Quelques nuages à une hauteur de 3800 ft

METAR: EDTY 231850Z /////KT 9999 FEW038 M02/M08 Q1016

Heure: 01:33 (00:33 UTC)

Prévision

Le bulletin a été fait il y a 7 heures et 33 minutes, à 17:00 UTC
Prévision valable du 23 à 18 UTC au 24 à 03 UTC
Vent 8 kt de nord-est
Visibilité 10 km ou plus
Quelques nuages à une hauteur de 3000 ft

TAF: EDTY 231700Z 2318/2403 04008KT 9999 FEW030

Observations et prévisions météorologiques de plus de 4000 aéroports (messages METAR et TAF).

Les stations disponibles sont représentées par des disques jaunes et rouges sur la carte.

Passer la souris dessus pour voir le nom de la station.

Cliquer dessus pour voir les observations et prévisions météorologiques.

Pour changer de carte: cliquez sur les boutons verts avec une croix noire pour zoomer, sur le bouton vert avec un tiret pour effectuer un zoom arrière, ou sur les flèches vertes pour les cartes adjacentes.


METAR-TAF: